sensor_id;sensor_type;location;lat;lon;timestamp;pressure;altitude;pressure_sealevel;temperature;humidity
5609;BME280;2826;51.354;9.588;2023-05-13T00:00:13;98418.47;;;15.31;56.67
5609;BME280;2826;51.354;9.588;2023-05-13T00:02:40;98417.44;;;15.34;57.03
5609;BME280;2826;51.354;9.588;2023-05-13T00:05:07;98415.78;;;15.33;56.54
5609;BME280;2826;51.354;9.588;2023-05-13T00:07:34;98415.94;;;15.29;56.70
5609;BME280;2826;51.354;9.588;2023-05-13T00:10:00;98411.47;;;15.32;57.13
5609;BME280;2826;51.354;9.588;2023-05-13T00:12:27;98407.84;;;15.34;57.01
5609;BME280;2826;51.354;9.588;2023-05-13T00:14:56;98410.38;;;15.36;57.00
5609;BME280;2826;51.354;9.588;2023-05-13T00:17:23;98405.75;;;15.41;56.70
5609;BME280;2826;51.354;9.588;2023-05-13T00:19:49;98409.94;;;15.44;56.71
5609;BME280;2826;51.354;9.588;2023-05-13T00:22:16;98410.81;;;15.44;56.99
5609;BME280;2826;51.354;9.588;2023-05-13T00:24:43;98406.41;;;15.45;56.82
5609;BME280;2826;51.354;9.588;2023-05-13T00:27:09;98405.47;;;15.46;56.70
5609;BME280;2826;51.354;9.588;2023-05-13T00:29:35;98406.41;;;15.45;57.50
5609;BME280;2826;51.354;9.588;2023-05-13T00:32:04;98409.94;;;15.44;57.84
5609;BME280;2826;51.354;9.588;2023-05-13T00:34:31;98405.81;;;15.39;57.86
5609;BME280;2826;51.354;9.588;2023-05-13T00:36:58;98407.69;;;15.37;57.62
5609;BME280;2826;51.354;9.588;2023-05-13T00:39:28;98405.06;;;15.37;57.06
5609;BME280;2826;51.354;9.588;2023-05-13T00:41:55;98404.22;;;15.37;57.17
5609;BME280;2826;51.354;9.588;2023-05-13T00:44:21;98405.16;;;15.36;57.27
5609;BME280;2826;51.354;9.588;2023-05-13T00:46:48;98405.41;;;15.31;57.32
5609;BME280;2826;51.354;9.588;2023-05-13T00:49:16;98403.06;;;15.26;57.75
5609;BME280;2826;51.354;9.588;2023-05-13T00:51:43;98404.16;;;15.22;57.82
5609;BME280;2826;51.354;9.588;2023-05-13T00:54:10;98401.63;;;15.21;58.48
5609;BME280;2826;51.354;9.588;2023-05-13T00:56:37;98403.47;;;15.19;58.63
5609;BME280;2826;51.354;9.588;2023-05-13T00:59:03;98400.25;;;15.13;57.87
5609;BME280;2826;51.354;9.588;2023-05-13T01:01:37;98398.16;;;15.04;57.97
5609;BME280;2826;51.354;9.588;2023-05-13T01:04:13;98404.66;;;14.97;58.90
5609;BME280;2826;51.354;9.588;2023-05-13T01:06:51;98409.38;;;14.90;58.61
5609;BME280;2826;51.354;9.588;2023-05-13T01:09:26;98413.31;;;14.81;59.06
5609;BME280;2826;51.354;9.588;2023-05-13T01:12:01;98415.78;;;14.67;59.52
5609;BME280;2826;51.354;9.588;2023-05-13T01:14:32;98413.50;;;14.43;60.95
5609;BME280;2826;51.354;9.588;2023-05-13T01:17:07;98419.38;;;14.30;61.63
5609;BME280;2826;51.354;9.588;2023-05-13T01:19:39;98422.34;;;14.22;62.15
5609;BME280;2826;51.354;9.588;2023-05-13T01:22:09;98417.38;;;14.18;62.75
5609;BME280;2826;51.354;9.588;2023-05-13T01:24:36;98418.59;;;14.10;63.17
5609;BME280;2826;51.354;9.588;2023-05-13T01:27:03;98416.47;;;14.01;63.39
5609;BME280;2826;51.354;9.588;2023-05-13T01:29:30;98418.59;;;13.93;63.45
5609;BME280;2826;51.354;9.588;2023-05-13T01:31:59;98418.13;;;13.84;64.37
5609;BME280;2826;51.354;9.588;2023-05-13T01:34:26;98413.22;;;13.78;64.43
5609;BME280;2826;51.354;9.588;2023-05-13T01:36:54;98424.50;;;13.79;64.33
5609;BME280;2826;51.354;9.588;2023-05-13T01:39:23;98428.94;;;13.77;64.68
5609;BME280;2826;51.354;9.588;2023-05-13T01:41:53;98429.84;;;13.76;65.09
5609;BME280;2826;51.354;9.588;2023-05-13T01:44:20;98434.22;;;13.75;64.79
5609;BME280;2826;51.354;9.588;2023-05-13T01:46:47;98438.13;;;13.66;65.11
5609;BME280;2826;51.354;9.588;2023-05-13T01:49:16;98439.19;;;13.62;65.47
5609;BME280;2826;51.354;9.588;2023-05-13T01:51:44;98437.56;;;13.59;65.38
5609;BME280;2826;51.354;9.588;2023-05-13T01:54:10;98427.53;;;13.52;65.18
5609;BME280;2826;51.354;9.588;2023-05-13T01:56:44;98422.56;;;13.45;65.35
5609;BME280;2826;51.354;9.588;2023-05-13T01:59:11;98436.34;;;13.49;65.72
5609;BME280;2826;51.354;9.588;2023-05-13T02:01:38;98437.16;;;13.50;66.00
5609;BME280;2826;51.354;9.588;2023-05-13T02:04:24;98434.28;;;13.56;65.87
5609;BME280;2826;51.354;9.588;2023-05-13T02:06:50;98424.53;;;13.40;66.09
5609;BME280;2826;51.354;9.588;2023-05-13T02:09:17;98431.94;;;13.50;65.72
5609;BME280;2826;51.354;9.588;2023-05-13T02:11:45;98433.50;;;13.54;65.52
5609;BME280;2826;51.354;9.588;2023-05-13T02:14:12;98430.97;;;13.52;65.43
5609;BME280;2826;51.354;9.588;2023-05-13T02:16:38;98429.34;;;13.50;65.39
5609;BME280;2826;51.354;9.588;2023-05-13T02:19:05;98432.81;;;13.50;64.08
5609;BME280;2826;51.354;9.588;2023-05-13T02:21:32;98436.88;;;13.56;64.01
5609;BME280;2826;51.354;9.588;2023-05-13T02:23:59;98442.00;;;13.57;63.86
5609;BME280;2826;51.354;9.588;2023-05-13T02:26:27;98441.09;;;13.58;63.53
5609;BME280;2826;51.354;9.588;2023-05-13T02:28:56;98449.81;;;13.57;63.67
5609;BME280;2826;51.354;9.588;2023-05-13T02:31:22;98443.84;;;13.55;63.65
5609;BME280;2826;51.354;9.588;2023-05-13T02:33:49;98441.38;;;13.52;63.82
5609;BME280;2826;51.354;9.588;2023-05-13T02:36:16;98433.72;;;13.49;63.68
5609;BME280;2826;51.354;9.588;2023-05-13T02:38:43;98444.25;;;13.46;63.91
5609;BME280;2826;51.354;9.588;2023-05-13T02:41:12;98437.38;;;13.45;63.69
5609;BME280;2826;51.354;9.588;2023-05-13T02:43:40;98446.94;;;13.44;63.38
5609;BME280;2826;51.354;9.588;2023-05-13T02:46:08;98433.47;;;13.35;63.66
5609;BME280;2826;51.354;9.588;2023-05-13T02:48:35;98441.28;;;13.35;64.37
5609;BME280;2826;51.354;9.588;2023-05-13T02:51:01;98436.25;;;13.31;64.61
5609;BME280;2826;51.354;9.588;2023-05-13T02:53:28;98434.69;;;13.27;65.15
5609;BME280;2826;51.354;9.588;2023-05-13T02:55:59;98438.56;;;13.18;65.55
5609;BME280;2826;51.354;9.588;2023-05-13T02:58:26;98439.06;;;13.07;65.79
5609;BME280;2826;51.354;9.588;2023-05-13T03:00:54;98442.88;;;13.00;65.98
5609;BME280;2826;51.354;9.588;2023-05-13T03:03:24;98436.88;;;12.98;66.23
5609;BME280;2826;51.354;9.588;2023-05-13T03:05:50;98438.09;;;12.91;66.48
5609;BME280;2826;51.354;9.588;2023-05-13T03:08:17;98433.84;;;12.88;66.85
5609;BME280;2826;51.354;9.588;2023-05-13T03:10:44;98439.25;;;12.84;66.70
5609;BME280;2826;51.354;9.588;2023-05-13T03:13:11;98444.59;;;12.80;67.15
5609;BME280;2826;51.354;9.588;2023-05-13T03:15:37;98394.13;;;12.45;67.35
5609;BME280;2826;51.354;9.588;2023-05-13T03:18:04;98440.66;;;12.72;67.37
5609;BME280;2826;51.354;9.588;2023-05-13T03:20:32;98440.84;;;12.67;67.49
5609;BME280;2826;51.354;9.588;2023-05-13T03:23:01;98449.69;;;12.63;67.58
5609;BME280;2826;51.354;9.588;2023-05-13T03:25:29;98448.19;;;12.57;67.96
5609;BME280;2826;51.354;9.588;2023-05-13T03:27:57;98455.94;;;12.59;68.22
5609;BME280;2826;51.354;9.588;2023-05-13T03:30:26;98450.66;;;12.60;68.07
5609;BME280;2826;51.354;9.588;2023-05-13T03:33:02;98448.00;;;12.62;68.41
5609;BME280;2826;51.354;9.588;2023-05-13T03:35:29;98450.59;;;12.62;68.30
5609;BME280;2826;51.354;9.588;2023-05-13T03:37:57;98454.84;;;12.64;68.03
5609;BME280;2826;51.354;9.588;2023-05-13T03:40:24;98451.53;;;12.61;68.60
5609;BME280;2826;51.354;9.588;2023-05-13T03:42:50;98452.34;;;12.61;68.35
5609;BME280;2826;51.354;9.588;2023-05-13T03:45:19;98447.94;;;12.63;68.32
5609;BME280;2826;51.354;9.588;2023-05-13T03:47:49;98448.88;;;12.62;68.67
5609;BME280;2826;51.354;9.588;2023-05-13T03:50:17;98451.53;;;12.61;68.71
5609;BME280;2826;51.354;9.588;2023-05-13T03:52:44;98452.63;;;12.55;69.09
5609;BME280;2826;51.354;9.588;2023-05-13T03:55:12;98462.28;;;12.53;68.51
5609;BME280;2826;51.354;9.588;2023-05-13T03:57:39;98458.94;;;12.49;69.04
5609;BME280;2826;51.354;9.588;2023-05-13T04:00:07;98458.03;;;12.50;68.84
5609;BME280;2826;51.354;9.588;2023-05-13T04:02:39;98457.25;;;12.48;69.14
5609;BME280;2826;51.354;9.588;2023-05-13T04:05:07;98460.78;;;12.47;69.45
5609;BME280;2826;51.354;9.588;2023-05-13T04:07:34;98462.34;;;12.51;69.01
5609;BME280;2826;51.354;9.588;2023-05-13T04:10:01;98456.16;;;12.54;69.28
5609;BME280;2826;51.354;9.588;2023-05-13T04:12:30;98465.63;;;12.55;68.78
5609;BME280;2826;51.354;9.588;2023-05-13T04:14:59;98464.41;;;12.64;68.80
5609;BME280;2826;51.354;9.588;2023-05-13T04:17:26;98463.34;;;12.68;68.41
5609;BME280;2826;51.354;9.588;2023-05-13T04:19:53;98464.25;;;12.67;68.57
5609;BME280;2826;51.354;9.588;2023-05-13T04:22:20;98468.63;;;12.66;68.52
5609;BME280;2826;51.354;9.588;2023-05-13T04:24:47;98466.66;;;12.72;68.78
5609;BME280;2826;51.354;9.588;2023-05-13T04:27:16;98467.59;;;12.71;68.64
5609;BME280;2826;51.354;9.588;2023-05-13T04:29:46;98469.97;;;12.75;68.05
5609;BME280;2826;51.354;9.588;2023-05-13T04:32:13;98469.69;;;12.81;68.20
5609;BME280;2826;51.354;9.588;2023-05-13T04:34:46;98430.78;;;12.59;67.75
5609;BME280;2826;51.354;9.588;2023-05-13T04:37:14;98466.97;;;12.85;67.70
5609;BME280;2826;51.354;9.588;2023-05-13T04:39:44;98468.53;;;12.89;68.23
5609;BME280;2826;51.354;9.588;2023-05-13T04:42:13;98455.56;;;12.87;67.75
5609;BME280;2826;51.354;9.588;2023-05-13T04:44:41;98472.84;;;13.09;67.93
5609;BME280;2826;51.354;9.588;2023-05-13T04:47:09;98442.00;;;13.00;67.33
5609;BME280;2826;51.354;9.588;2023-05-13T04:49:36;98472.97;;;13.25;67.93
5609;BME280;2826;51.354;9.588;2023-05-13T04:52:03;98474.31;;;13.34;67.26
5609;BME280;2826;51.354;9.588;2023-05-13T04:54:31;98472.13;;;13.44;67.12
5609;BME280;2826;51.354;9.588;2023-05-13T04:57:00;98472.72;;;13.51;66.85
5609;BME280;2826;51.354;9.588;2023-05-13T04:59:28;98471.31;;;13.63;67.07
5609;BME280;2826;51.354;9.588;2023-05-13T05:01:55;98473.41;;;13.74;65.95
5609;BME280;2826;51.354;9.588;2023-05-13T05:04:23;98474.03;;;13.79;65.90
5609;BME280;2826;51.354;9.588;2023-05-13T05:06:51;98476.00;;;13.91;66.00
5609;BME280;2826;51.354;9.588;2023-05-13T05:09:18;98475.75;;;13.97;65.69
5609;BME280;2826;51.354;9.588;2023-05-13T05:11:47;98481.34;;;14.07;66.05
5609;BME280;2826;51.354;9.588;2023-05-13T05:14:16;98476.38;;;14.20;65.69
5609;BME280;2826;51.354;9.588;2023-05-13T05:16:44;98481.38;;;14.25;65.09
5609;BME280;2826;51.354;9.588;2023-05-13T05:19:11;98485.34;;;14.32;65.70
5609;BME280;2826;51.354;9.588;2023-05-13T05:21:39;98486.88;;;14.36;65.65
5609;BME280;2826;51.354;9.588;2023-05-13T05:24:05;98486.13;;;14.34;65.65
5609;BME280;2826;51.354;9.588;2023-05-13T05:26:32;98487.00;;;14.33;65.64
5609;BME280;2826;51.354;9.588;2023-05-13T05:29:00;98490.16;;;14.40;66.14
5609;BME280;2826;51.354;9.588;2023-05-13T05:31:26;98492.00;;;14.56;65.77
5609;BME280;2826;51.354;9.588;2023-05-13T05:33:55;98496.34;;;14.73;65.94
5609;BME280;2826;51.354;9.588;2023-05-13T05:36:21;98491.38;;;14.86;65.90
5609;BME280;2826;51.354;9.588;2023-05-13T05:38:50;98491.81;;;14.94;66.69
5609;BME280;2826;51.354;9.588;2023-05-13T05:41:17;98490.56;;;15.01;66.54
5609;BME280;2826;51.354;9.588;2023-05-13T05:43:45;98492.75;;;15.09;66.40
5609;BME280;2826;51.354;9.588;2023-05-13T05:46:12;98494.84;;;15.02;66.77
5609;BME280;2826;51.354;9.588;2023-05-13T05:48:39;98496.72;;;15.00;65.78
5609;BME280;2826;51.354;9.588;2023-05-13T05:51:06;98501.59;;;15.07;65.83
5609;BME280;2826;51.354;9.588;2023-05-13T05:53:35;98494.41;;;15.28;64.80
5609;BME280;2826;51.354;9.588;2023-05-13T05:56:07;98500.97;;;15.35;63.13
5609;BME280;2826;51.354;9.588;2023-05-13T05:58:34;98490.53;;;15.51;63.28
5609;BME280;2826;51.354;9.588;2023-05-13T06:01:01;98493.47;;;15.77;63.18
5609;BME280;2826;51.354;9.588;2023-05-13T06:03:28;98497.78;;;15.94;62.41
5609;BME280;2826;51.354;9.588;2023-05-13T06:05:54;98499.69;;;16.07;61.80
5609;BME280;2826;51.354;9.588;2023-05-13T06:08:21;98496.00;;;16.26;61.14
5609;BME280;2826;51.354;9.588;2023-05-13T06:10:55;98494.03;;;16.45;60.58
5609;BME280;2826;51.354;9.588;2023-05-13T06:13:23;98492.53;;;16.56;59.98
5609;BME280;2826;51.354;9.588;2023-05-13T06:15:50;98486.59;;;16.68;59.00
5609;BME280;2826;51.354;9.588;2023-05-13T06:18:17;98495.66;;;16.77;58.75
5609;BME280;2826;51.354;9.588;2023-05-13T06:20:43;98483.97;;;16.83;58.02
5609;BME280;2826;51.354;9.588;2023-05-13T06:23:10;98485.38;;;16.89;58.43
5609;BME280;2826;51.354;9.588;2023-05-13T06:25:39;98487.81;;;16.92;58.77
5609;BME280;2826;51.354;9.588;2023-05-13T06:28:05;98487.69;;;16.93;58.68
5609;BME280;2826;51.354;9.588;2023-05-13T06:30:34;98486.41;;;17.01;57.65
5609;BME280;2826;51.354;9.588;2023-05-13T06:33:02;98498.47;;;17.03;57.19
5609;BME280;2826;51.354;9.588;2023-05-13T06:35:29;98498.03;;;17.11;57.07
5609;BME280;2826;51.354;9.588;2023-05-13T06:37:58;98497.94;;;17.27;56.68
5609;BME280;2826;51.354;9.588;2023-05-13T06:40:26;98496.88;;;17.44;56.24
5609;BME280;2826;51.354;9.588;2023-05-13T06:42:53;98499.94;;;17.51;56.88
5609;BME280;2826;51.354;9.588;2023-05-13T06:45:27;98504.34;;;17.65;56.46
5609;BME280;2826;51.354;9.588;2023-05-13T06:47:55;98503.84;;;17.73;55.79
5609;BME280;2826;51.354;9.588;2023-05-13T06:50:21;98509.22;;;17.84;56.73
5609;BME280;2826;51.354;9.588;2023-05-13T06:52:48;98508.94;;;17.89;56.25
5609;BME280;2826;51.354;9.588;2023-05-13T06:55:15;98500.38;;;18.00;56.65
5609;BME280;2826;51.354;9.588;2023-05-13T06:57:43;98502.31;;;18.11;56.54
5609;BME280;2826;51.354;9.588;2023-05-13T07:00:12;98504.72;;;18.14;55.41
5609;BME280;2826;51.354;9.588;2023-05-13T07:02:39;98502.22;;;18.12;55.17
5609;BME280;2826;51.354;9.588;2023-05-13T07:05:09;98507.69;;;18.22;55.47
5609;BME280;2826;51.354;9.588;2023-05-13T07:07:35;98509.94;;;18.41;54.82
5609;BME280;2826;51.354;9.588;2023-05-13T07:10:02;98513.94;;;18.47;54.49
5609;BME280;2826;51.354;9.588;2023-05-13T07:12:29;98496.41;;;18.61;54.50
5609;BME280;2826;51.354;9.588;2023-05-13T07:14:57;98507.78;;;18.74;52.94
5609;BME280;2826;51.354;9.588;2023-05-13T07:17:23;98499.78;;;18.76;53.46
5609;BME280;2826;51.354;9.588;2023-05-13T07:19:50;98500.53;;;18.91;53.19
5609;BME280;2826;51.354;9.588;2023-05-13T07:22:18;98498.94;;;19.14;51.84
5609;BME280;2826;51.354;9.588;2023-05-13T07:24:44;98501.25;;;19.19;50.71
5609;BME280;2826;51.354;9.588;2023-05-13T07:27:11;98502.91;;;19.33;50.97
5609;BME280;2826;51.354;9.588;2023-05-13T07:29:37;98500.97;;;19.48;49.20
5609;BME280;2826;51.354;9.588;2023-05-13T07:32:05;98492.69;;;19.66;49.58
5609;BME280;2826;51.354;9.588;2023-05-13T07:34:31;98498.81;;;19.91;49.07
5609;BME280;2826;51.354;9.588;2023-05-13T07:36:58;98496.56;;;19.97;49.77
5609;BME280;2826;51.354;9.588;2023-05-13T07:39:26;98496.16;;;20.04;49.64
5609;BME280;2826;51.354;9.588;2023-05-13T07:41:52;98501.78;;;20.10;48.26
5609;BME280;2826;51.354;9.588;2023-05-13T07:44:19;98496.53;;;20.10;47.50
5609;BME280;2826;51.354;9.588;2023-05-13T07:46:46;98492.03;;;20.24;48.41
5609;BME280;2826;51.354;9.588;2023-05-13T07:49:13;98495.41;;;20.37;48.49
5609;BME280;2826;51.354;9.588;2023-05-13T07:51:40;98495.28;;;20.28;47.61
5609;BME280;2826;51.354;9.588;2023-05-13T07:54:07;98490.91;;;20.40;47.87
5609;BME280;2826;51.354;9.588;2023-05-13T07:56:35;98488.75;;;20.45;47.16
5609;BME280;2826;51.354;9.588;2023-05-13T07:59:02;98486.97;;;20.57;47.20
5609;BME280;2826;51.354;9.588;2023-05-13T08:01:29;98487.81;;;20.69;46.19
5609;BME280;2826;51.354;9.588;2023-05-13T08:03:56;98487.97;;;20.79;47.88
5609;BME280;2826;51.354;9.588;2023-05-13T08:06:22;98452.91;;;20.89;48.61
5609;BME280;2826;51.354;9.588;2023-05-13T08:08:49;98483.91;;;21.32;45.76
5609;BME280;2826;51.354;9.588;2023-05-13T08:11:16;98477.53;;;21.46;43.94
5609;BME280;2826;51.354;9.588;2023-05-13T08:13:44;98481.22;;;21.66;43.78
5609;BME280;2826;51.354;9.588;2023-05-13T08:16:10;98480.38;;;21.77;41.32
5609;BME280;2826;51.354;9.588;2023-05-13T08:18:37;98474.13;;;21.78;41.13
5609;BME280;2826;51.354;9.588;2023-05-13T08:21:04;98477.56;;;21.90;41.30
5609;BME280;2826;51.354;9.588;2023-05-13T08:23:31;98475.94;;;21.99;40.07
5609;BME280;2826;51.354;9.588;2023-05-13T08:25:58;98479.19;;;22.02;40.29
5609;BME280;2826;51.354;9.588;2023-05-13T08:28:25;98476.63;;;22.12;40.45
5609;BME280;2826;51.354;9.588;2023-05-13T08:30:53;98474.06;;;22.22;41.16
5609;BME280;2826;51.354;9.588;2023-05-13T08:33:22;98476.84;;;22.42;41.12
5609;BME280;2826;51.354;9.588;2023-05-13T08:35:49;98480.00;;;22.57;41.08
5609;BME280;2826;51.354;9.588;2023-05-13T08:38:16;98479.06;;;22.58;40.20
5609;BME280;2826;51.354;9.588;2023-05-13T08:40:43;98479.94;;;22.68;38.76
5609;BME280;2826;51.354;9.588;2023-05-13T08:43:14;98482.38;;;22.60;39.64
5609;BME280;2826;51.354;9.588;2023-05-13T08:45:44;98478.25;;;22.67;39.60
5609;BME280;2826;51.354;9.588;2023-05-13T08:48:14;98482.34;;;22.81;40.27
5609;BME280;2826;51.354;9.588;2023-05-13T08:50:41;98480.00;;;22.88;39.04
5609;BME280;2826;51.354;9.588;2023-05-13T08:53:10;98474.91;;;22.96;38.97
5609;BME280;2826;51.354;9.588;2023-05-13T08:55:37;98474.56;;;23.21;37.96
5609;BME280;2826;51.354;9.588;2023-05-13T08:58:04;98472.56;;;23.34;38.09
5609;BME280;2826;51.354;9.588;2023-05-13T09:00:31;98469.25;;;23.42;37.35
5609;BME280;2826;51.354;9.588;2023-05-13T09:02:59;98472.03;;;23.51;36.43
5609;BME280;2826;51.354;9.588;2023-05-13T09:05:27;98479.28;;;23.48;36.35
5609;BME280;2826;51.354;9.588;2023-05-13T09:07:53;98472.31;;;23.57;35.87
5609;BME280;2826;51.354;9.588;2023-05-13T09:10:20;98482.63;;;23.51;35.67
5609;BME280;2826;51.354;9.588;2023-05-13T09:12:48;98476.66;;;23.58;35.77
5609;BME280;2826;51.354;9.588;2023-05-13T09:15:16;98468.59;;;23.70;35.11
5609;BME280;2826;51.354;9.588;2023-05-13T09:17:46;98475.16;;;23.85;35.55
5609;BME280;2826;51.354;9.588;2023-05-13T09:20:15;98446.59;;;23.69;34.58
5609;BME280;2826;51.354;9.588;2023-05-13T09:22:47;98470.41;;;23.89;34.99
5609;BME280;2826;51.354;9.588;2023-05-13T09:25:15;98467.63;;;23.91;33.73
5609;BME280;2826;51.354;9.588;2023-05-13T09:27:44;98466.38;;;23.95;34.28
5609;BME280;2826;51.354;9.588;2023-05-13T09:30:11;98470.16;;;24.12;34.86
5609;BME280;2826;51.354;9.588;2023-05-13T09:32:39;98470.69;;;24.16;33.90
5609;BME280;2826;51.354;9.588;2023-05-13T09:35:11;98468.63;;;24.19;34.20
5609;BME280;2826;51.354;9.588;2023-05-13T09:37:43;98465.00;;;24.20;34.86
5609;BME280;2826;51.354;9.588;2023-05-13T09:40:12;98436.56;;;24.12;34.34
5609;BME280;2826;51.354;9.588;2023-05-13T09:42:40;98465.06;;;24.48;34.73
5609;BME280;2826;51.354;9.588;2023-05-13T09:45:08;98460.94;;;24.84;34.24
5609;BME280;2826;51.354;9.588;2023-05-13T09:47:35;98461.16;;;25.00;34.62
5609;BME280;2826;51.354;9.588;2023-05-13T09:50:03;98454.22;;;25.17;33.39
5609;BME280;2826;51.354;9.588;2023-05-13T09:52:30;98465.72;;;25.08;32.65
5609;BME280;2826;51.354;9.588;2023-05-13T09:54:57;98452.28;;;24.82;32.84
5609;BME280;2826;51.354;9.588;2023-05-13T09:57:27;98458.13;;;24.95;33.49
5609;BME280;2826;51.354;9.588;2023-05-13T09:59:57;98453.56;;;25.15;33.62
5609;BME280;2826;51.354;9.588;2023-05-13T10:02:25;98461.75;;;24.94;33.17
5609;BME280;2826;51.354;9.588;2023-05-13T10:04:52;98453.91;;;24.55;33.42
5609;BME280;2826;51.354;9.588;2023-05-13T10:07:21;98456.31;;;24.48;33.81
5609;BME280;2826;51.354;9.588;2023-05-13T10:09:51;98451.91;;;24.76;33.17
5609;BME280;2826;51.354;9.588;2023-05-13T10:12:20;98445.88;;;25.12;32.09
5609;BME280;2826;51.354;9.588;2023-05-13T10:14:50;98449.56;;;25.29;31.24
5609;BME280;2826;51.354;9.588;2023-05-13T10:17:18;98455.16;;;24.98;31.89
5609;BME280;2826;51.354;9.588;2023-05-13T10:19:47;98447.16;;;24.70;31.54
5609;BME280;2826;51.354;9.588;2023-05-13T10:22:15;98451.41;;;24.53;32.32
5609;BME280;2826;51.354;9.588;2023-05-13T10:24:43;98448.94;;;24.32;33.65
5609;BME280;2826;51.354;9.588;2023-05-13T10:27:10;98452.06;;;24.55;33.53
5609;BME280;2826;51.354;9.588;2023-05-13T10:29:38;98439.31;;;24.78;32.90
5609;BME280;2826;51.354;9.588;2023-05-13T10:32:08;98445.56;;;24.87;33.29
5609;BME280;2826;51.354;9.588;2023-05-13T10:34:37;98438.63;;;24.76;33.59
5609;BME280;2826;51.354;9.588;2023-05-13T10:37:36;98445.84;;;24.46;34.75
5609;BME280;2826;51.354;9.588;2023-05-13T10:40:24;98407.38;;;24.22;35.37
5609;BME280;2826;51.354;9.588;2023-05-13T10:43:07;98445.28;;;24.43;34.84
5609;BME280;2826;51.354;9.588;2023-05-13T10:45:35;98450.03;;;24.49;35.50
5609;BME280;2826;51.354;9.588;2023-05-13T10:48:06;98443.94;;;24.76;34.44
5609;BME280;2826;51.354;9.588;2023-05-13T10:50:35;98450.44;;;25.20;35.04
5609;BME280;2826;51.354;9.588;2023-05-13T10:53:06;98448.34;;;25.24;34.01
5609;BME280;2826;51.354;9.588;2023-05-13T10:55:39;98452.00;;;24.85;34.67
5609;BME280;2826;51.354;9.588;2023-05-13T10:58:08;98455.59;;;24.36;35.09
5609;BME280;2826;51.354;9.588;2023-05-13T11:00:37;98454.25;;;24.12;36.70
5609;BME280;2826;51.354;9.588;2023-05-13T11:03:10;98458.69;;;23.82;38.01
5609;BME280;2826;51.354;9.588;2023-05-13T11:05:39;98460.09;;;23.76;37.65
5609;BME280;2826;51.354;9.588;2023-05-13T11:08:05;98452.28;;;23.84;37.59
5609;BME280;2826;51.354;9.588;2023-05-13T11:10:32;98451.72;;;23.51;37.39
5609;BME280;2826;51.354;9.588;2023-05-13T11:13:07;98451.31;;;23.15;38.56
5609;BME280;2826;51.354;9.588;2023-05-13T11:15:43;98456.13;;;23.00;38.99
5609;BME280;2826;51.354;9.588;2023-05-13T11:18:12;98467.69;;;22.67;39.07
5609;BME280;2826;51.354;9.588;2023-05-13T11:20:39;98472.00;;;22.68;38.85
5609;BME280;2826;51.354;9.588;2023-05-13T11:23:05;98474.22;;;22.63;38.63
5609;BME280;2826;51.354;9.588;2023-05-13T11:25:33;98440.78;;;22.41;39.24
5609;BME280;2826;51.354;9.588;2023-05-13T11:27:59;98471.03;;;22.69;38.22
5609;BME280;2826;51.354;9.588;2023-05-13T11:30:26;98461.81;;;22.64;38.51
5609;BME280;2826;51.354;9.588;2023-05-13T11:32:54;98458.25;;;22.53;38.05
5609;BME280;2826;51.354;9.588;2023-05-13T11:35:23;98463.75;;;22.40;37.86
5609;BME280;2826;51.354;9.588;2023-05-13T11:37:50;98459.81;;;22.35;38.37
5609;BME280;2826;51.354;9.588;2023-05-13T11:40:21;98461.63;;;22.34;39.14
5609;BME280;2826;51.354;9.588;2023-05-13T11:42:48;98445.31;;;22.29;39.22
5609;BME280;2826;51.354;9.588;2023-05-13T11:45:15;98455.31;;;22.25;39.17
5609;BME280;2826;51.354;9.588;2023-05-13T11:47:42;98454.03;;;22.19;39.20
5609;BME280;2826;51.354;9.588;2023-05-13T11:50:19;98453.25;;;22.08;36.69
5609;BME280;2826;51.354;9.588;2023-05-13T11:52:51;98424.44;;;21.83;37.40
5609;BME280;2826;51.354;9.588;2023-05-13T11:55:24;98453.63;;;22.45;36.38
5609;BME280;2826;51.354;9.588;2023-05-13T11:57:52;98451.63;;;23.21;35.83
5609;BME280;2826;51.354;9.588;2023-05-13T12:00:23;98440.72;;;23.95;34.80
5609;BME280;2826;51.354;9.588;2023-05-13T12:02:50;98441.84;;;24.70;34.46
5609;BME280;2826;51.354;9.588;2023-05-13T12:05:17;98446.22;;;25.27;33.65
5609;BME280;2826;51.354;9.588;2023-05-13T12:07:44;98434.72;;;25.37;32.35
5609;BME280;2826;51.354;9.588;2023-05-13T12:10:12;98437.97;;;25.59;32.50
5609;BME280;2826;51.354;9.588;2023-05-13T12:12:40;98453.56;;;25.15;32.46
5609;BME280;2826;51.354;9.588;2023-05-13T12:15:10;98449.91;;;24.78;33.14
5609;BME280;2826;51.354;9.588;2023-05-13T12:17:37;98419.69;;;24.13;32.87
5609;BME280;2826;51.354;9.588;2023-05-13T12:20:08;98447.16;;;23.83;32.48
5609;BME280;2826;51.354;9.588;2023-05-13T12:22:36;98444.22;;;23.66;33.63
5609;BME280;2826;51.354;9.588;2023-05-13T12:25:35;98440.75;;;24.15;33.52
5609;BME280;2826;51.354;9.588;2023-05-13T12:28:05;98439.44;;;24.77;32.93
5609;BME280;2826;51.354;9.588;2023-05-13T12:30:32;98441.78;;;25.46;32.64
5609;BME280;2826;51.354;9.588;2023-05-13T12:32:59;98434.13;;;26.16;31.87
5609;BME280;2826;51.354;9.588;2023-05-13T12:35:26;98438.91;;;26.30;31.01
5609;BME280;2826;51.354;9.588;2023-05-13T12:37:58;98453.75;;;26.23;30.52
5609;BME280;2826;51.354;9.588;2023-05-13T12:40:26;98448.38;;;26.15;30.44
5609;BME280;2826;51.354;9.588;2023-05-13T12:42:56;98444.25;;;25.76;30.42
5609;BME280;2826;51.354;9.588;2023-05-13T12:45:26;98441.50;;;25.67;30.67
5609;BME280;2826;51.354;9.588;2023-05-13T12:47:53;98440.66;;;26.03;29.79
5609;BME280;2826;51.354;9.588;2023-05-13T12:50:20;98442.63;;;26.19;28.94
5609;BME280;2826;51.354;9.588;2023-05-13T12:52:47;98444.53;;;26.09;29.11
5609;BME280;2826;51.354;9.588;2023-05-13T12:55:13;98441.81;;;25.82;29.08
5609;BME280;2826;51.354;9.588;2023-05-13T12:57:41;98441.59;;;25.29;29.31
5609;BME280;2826;51.354;9.588;2023-05-13T13:00:10;98442.78;;;24.89;30.36
5609;BME280;2826;51.354;9.588;2023-05-13T13:02:40;98439.19;;;24.70;31.20
5609;BME280;2826;51.354;9.588;2023-05-13T13:05:07;98434.69;;;24.80;31.83
5609;BME280;2826;51.354;9.588;2023-05-13T13:07:34;98436.69;;;24.69;30.90
5609;BME280;2826;51.354;9.588;2023-05-13T13:10:03;98441.94;;;24.40;30.93
5609;BME280;2826;51.354;9.588;2023-05-13T13:12:30;98442.09;;;24.29;31.64
5609;BME280;2826;51.354;9.588;2023-05-13T13:14:56;98441.13;;;24.78;31.78
5609;BME280;2826;51.354;9.588;2023-05-13T13:17:24;98408.22;;;24.71;31.31
5609;BME280;2826;51.354;9.588;2023-05-13T13:19:51;98441.22;;;24.96;30.28
5609;BME280;2826;51.354;9.588;2023-05-13T13:22:17;98442.09;;;25.15;30.87
5609;BME280;2826;51.354;9.588;2023-05-13T13:24:44;98443.25;;;25.59;29.78
5609;BME280;2826;51.354;9.588;2023-05-13T13:27:11;98444.06;;;25.41;29.20